sensor_id;sensor_type;location;lat;lon;timestamp;temperature;humidity
47022;DHT22;32779;52.264;6.154;2024-01-11T00:00:36;-4.90;99.90
47022;DHT22;32779;52.264;6.154;2024-01-11T00:03:02;-4.90;99.90
47022;DHT22;32779;52.264;6.154;2024-01-11T00:05:28;-4.90;99.90
47022;DHT22;32779;52.264;6.154;2024-01-11T00:07:54;-4.90;99.90
47022;DHT22;32779;52.264;6.154;2024-01-11T00:10:20;-4.90;99.90
47022;DHT22;32779;52.264;6.154;2024-01-11T00:12:45;-4.90;99.90
47022;DHT22;32779;52.264;6.154;2024-01-11T00:15:12;-4.90;99.90
47022;DHT22;32779;52.264;6.154;2024-01-11T00:17:37;-5.00;99.90
47022;DHT22;32779;52.264;6.154;2024-01-11T00:20:03;-5.00;99.90
47022;DHT22;32779;52.264;6.154;2024-01-11T00:22:29;-5.00;99.90
47022;DHT22;32779;52.264;6.154;2024-01-11T00:24:54;-5.00;99.90
47022;DHT22;32779;52.264;6.154;2024-01-11T00:27:20;-5.10;99.90
47022;DHT22;32779;52.264;6.154;2024-01-11T00:29:46;-5.10;99.90
47022;DHT22;32779;52.264;6.154;2024-01-11T00:32:11;-5.10;99.90
47022;DHT22;32779;52.264;6.154;2024-01-11T00:34:37;-5.10;99.90
47022;DHT22;32779;52.264;6.154;2024-01-11T00:37:03;-5.20;99.90
47022;DHT22;32779;52.264;6.154;2024-01-11T00:39:29;-5.20;99.90
47022;DHT22;32779;52.264;6.154;2024-01-11T00:41:55;-5.30;99.90
47022;DHT22;32779;52.264;6.154;2024-01-11T00:44:21;-5.40;99.90
47022;DHT22;32779;52.264;6.154;2024-01-11T00:46:46;-5.40;99.90
47022;DHT22;32779;52.264;6.154;2024-01-11T00:49:12;-5.40;99.90
47022;DHT22;32779;52.264;6.154;2024-01-11T00:51:38;-5.50;99.90
47022;DHT22;32779;52.264;6.154;2024-01-11T00:54:03;-5.50;99.90
47022;DHT22;32779;52.264;6.154;2024-01-11T00:56:29;-5.50;99.90
47022;DHT22;32779;52.264;6.154;2024-01-11T00:58:54;-5.60;99.90
47022;DHT22;32779;52.264;6.154;2024-01-11T01:01:20;-5.60;99.90
47022;DHT22;32779;52.264;6.154;2024-01-11T01:03:45;-5.70;99.90
47022;DHT22;32779;52.264;6.154;2024-01-11T01:06:11;-5.70;99.90
47022;DHT22;32779;52.264;6.154;2024-01-11T01:08:37;-5.70;99.90
47022;DHT22;32779;52.264;6.154;2024-01-11T01:11:03;-5.70;99.90
47022;DHT22;32779;52.264;6.154;2024-01-11T01:13:28;-5.60;99.90
47022;DHT22;32779;52.264;6.154;2024-01-11T01:15:55;-5.60;99.90
47022;DHT22;32779;52.264;6.154;2024-01-11T01:18:20;-5.60;99.90
47022;DHT22;32779;52.264;6.154;2024-01-11T01:20:46;-5.60;99.90
47022;DHT22;32779;52.264;6.154;2024-01-11T01:23:11;-5.60;99.90
47022;DHT22;32779;52.264;6.154;2024-01-11T01:25:37;-5.60;99.90
47022;DHT22;32779;52.264;6.154;2024-01-11T01:28:03;-5.50;99.90
47022;DHT22;32779;52.264;6.154;2024-01-11T01:30:29;-5.50;99.90
47022;DHT22;32779;52.264;6.154;2024-01-11T01:32:54;-5.60;99.90
47022;DHT22;32779;52.264;6.154;2024-01-11T01:35:21;-5.60;99.90
47022;DHT22;32779;52.264;6.154;2024-01-11T01:37:47;-5.60;99.90
47022;DHT22;32779;52.264;6.154;2024-01-11T01:40:12;-5.60;99.90
47022;DHT22;32779;52.264;6.154;2024-01-11T01:42:44;-5.60;99.90
47022;DHT22;32779;52.264;6.154;2024-01-11T01:45:11;-5.60;99.90
47022;DHT22;32779;52.264;6.154;2024-01-11T01:47:38;-5.60;99.90
47022;DHT22;32779;52.264;6.154;2024-01-11T01:50:06;-5.60;99.90
47022;DHT22;32779;52.264;6.154;2024-01-11T01:52:32;-5.60;99.90
47022;DHT22;32779;52.264;6.154;2024-01-11T01:54:58;-5.60;99.90
47022;DHT22;32779;52.264;6.154;2024-01-11T01:57:25;-5.60;99.90
47022;DHT22;32779;52.264;6.154;2024-01-11T01:59:52;-5.70;99.90
47022;DHT22;32779;52.264;6.154;2024-01-11T02:02:19;-5.70;99.90
47022;DHT22;32779;52.264;6.154;2024-01-11T02:04:45;-5.70;99.90
47022;DHT22;32779;52.264;6.154;2024-01-11T02:07:11;-5.70;99.90
47022;DHT22;32779;52.264;6.154;2024-01-11T02:09:36;-5.70;99.90
47022;DHT22;32779;52.264;6.154;2024-01-11T02:12:03;-5.70;99.90
47022;DHT22;32779;52.264;6.154;2024-01-11T02:14:28;-5.70;99.90
47022;DHT22;32779;52.264;6.154;2024-01-11T02:16:55;-5.70;99.90
47022;DHT22;32779;52.264;6.154;2024-01-11T02:19:20;-5.60;99.90
47022;DHT22;32779;52.264;6.154;2024-01-11T02:21:46;-5.70;99.90
47022;DHT22;32779;52.264;6.154;2024-01-11T02:24:14;-5.70;99.90
47022;DHT22;32779;52.264;6.154;2024-01-11T02:27:15;-5.70;99.90
47022;DHT22;32779;52.264;6.154;2024-01-11T02:29:40;-5.80;99.90
47022;DHT22;32779;52.264;6.154;2024-01-11T02:32:06;-5.80;99.90
47022;DHT22;32779;52.264;6.154;2024-01-11T02:34:33;-5.90;99.90
47022;DHT22;32779;52.264;6.154;2024-01-11T02:36:59;-5.90;99.90
47022;DHT22;32779;52.264;6.154;2024-01-11T02:39:25;-6.00;99.90
47022;DHT22;32779;52.264;6.154;2024-01-11T02:41:52;-6.00;99.90
47022;DHT22;32779;52.264;6.154;2024-01-11T02:44:18;-6.10;99.90
47022;DHT22;32779;52.264;6.154;2024-01-11T02:46:44;-6.20;99.90
47022;DHT22;32779;52.264;6.154;2024-01-11T02:49:10;-6.20;99.90
47022;DHT22;32779;52.264;6.154;2024-01-11T02:51:35;-6.20;99.90
47022;DHT22;32779;52.264;6.154;2024-01-11T02:54:02;-6.20;99.90
47022;DHT22;32779;52.264;6.154;2024-01-11T02:56:27;-6.20;99.90
47022;DHT22;32779;52.264;6.154;2024-01-11T02:58:53;-6.20;99.90
47022;DHT22;32779;52.264;6.154;2024-01-11T03:01:19;-6.20;99.90
47022;DHT22;32779;52.264;6.154;2024-01-11T03:03:44;-6.30;99.90
47022;DHT22;32779;52.264;6.154;2024-01-11T03:06:10;-6.20;99.90
47022;DHT22;32779;52.264;6.154;2024-01-11T03:08:36;-6.20;99.90
47022;DHT22;32779;52.264;6.154;2024-01-11T03:11:01;-6.30;99.90
47022;DHT22;32779;52.264;6.154;2024-01-11T03:13:27;-6.30;99.90
47022;DHT22;32779;52.264;6.154;2024-01-11T03:15:53;-6.30;99.90
47022;DHT22;32779;52.264;6.154;2024-01-11T03:18:18;-6.30;99.90
47022;DHT22;32779;52.264;6.154;2024-01-11T03:20:44;-6.30;99.90
47022;DHT22;32779;52.264;6.154;2024-01-11T03:23:09;-6.30;99.90
47022;DHT22;32779;52.264;6.154;2024-01-11T03:25:35;-6.30;99.90
47022;DHT22;32779;52.264;6.154;2024-01-11T03:28:01;-6.30;99.90
47022;DHT22;32779;52.264;6.154;2024-01-11T03:30:27;-6.30;99.90
47022;DHT22;32779;52.264;6.154;2024-01-11T03:32:53;-6.30;99.90
47022;DHT22;32779;52.264;6.154;2024-01-11T03:35:19;-6.20;99.90
47022;DHT22;32779;52.264;6.154;2024-01-11T03:37:44;-6.20;99.90
47022;DHT22;32779;52.264;6.154;2024-01-11T03:40:11;-6.10;99.90
47022;DHT22;32779;52.264;6.154;2024-01-11T03:42:36;-6.10;99.90
47022;DHT22;32779;52.264;6.154;2024-01-11T03:45:03;-6.20;99.90
47022;DHT22;32779;52.264;6.154;2024-01-11T03:47:28;-6.10;99.90
47022;DHT22;32779;52.264;6.154;2024-01-11T03:49:54;-6.20;99.90
47022;DHT22;32779;52.264;6.154;2024-01-11T03:52:20;-6.10;99.90
47022;DHT22;32779;52.264;6.154;2024-01-11T03:54:45;-6.10;99.90
47022;DHT22;32779;52.264;6.154;2024-01-11T03:57:11;-6.10;99.90
47022;DHT22;32779;52.264;6.154;2024-01-11T03:59:37;-6.10;99.90
47022;DHT22;32779;52.264;6.154;2024-01-11T04:02:05;-6.10;99.90
47022;DHT22;32779;52.264;6.154;2024-01-11T04:04:32;-6.10;99.90
47022;DHT22;32779;52.264;6.154;2024-01-11T04:06:58;-6.10;99.90
47022;DHT22;32779;52.264;6.154;2024-01-11T04:09:23;-6.10;99.90
47022;DHT22;32779;52.264;6.154;2024-01-11T04:11:49;-6.10;99.90
47022;DHT22;32779;52.264;6.154;2024-01-11T04:14:14;-6.10;99.90
47022;DHT22;32779;52.264;6.154;2024-01-11T04:16:43;-6.10;99.90
47022;DHT22;32779;52.264;6.154;2024-01-11T04:19:10;-6.20;99.90
47022;DHT22;32779;52.264;6.154;2024-01-11T04:21:36;-6.20;99.90
47022;DHT22;32779;52.264;6.154;2024-01-11T04:24:04;-6.20;99.90
47022;DHT22;32779;52.264;6.154;2024-01-11T04:26:31;-6.20;99.90
47022;DHT22;32779;52.264;6.154;2024-01-11T04:28:56;-6.10;99.90
47022;DHT22;32779;52.264;6.154;2024-01-11T04:31:25;-6.10;99.90
47022;DHT22;32779;52.264;6.154;2024-01-11T04:33:51;-6.10;99.90
47022;DHT22;32779;52.264;6.154;2024-01-11T04:36:16;-6.10;99.90
47022;DHT22;32779;52.264;6.154;2024-01-11T04:38:42;-6.10;99.90
47022;DHT22;32779;52.264;6.154;2024-01-11T04:41:08;-6.10;99.90
47022;DHT22;32779;52.264;6.154;2024-01-11T04:43:40;-6.10;99.90
47022;DHT22;32779;52.264;6.154;2024-01-11T04:46:18;-6.10;99.90
47022;DHT22;32779;52.264;6.154;2024-01-11T04:48:45;-6.10;99.90
47022;DHT22;32779;52.264;6.154;2024-01-11T04:51:12;-6.10;99.90
47022;DHT22;32779;52.264;6.154;2024-01-11T04:53:39;-6.00;99.90
47022;DHT22;32779;52.264;6.154;2024-01-11T04:56:06;-6.00;99.90
47022;DHT22;32779;52.264;6.154;2024-01-11T04:58:33;-6.00;99.90
47022;DHT22;32779;52.264;6.154;2024-01-11T05:00:59;-6.00;99.90
47022;DHT22;32779;52.264;6.154;2024-01-11T05:03:25;-6.00;99.90
47022;DHT22;32779;52.264;6.154;2024-01-11T05:05:51;-6.00;99.90
47022;DHT22;32779;52.264;6.154;2024-01-11T05:08:16;-6.10;99.90
47022;DHT22;32779;52.264;6.154;2024-01-11T05:10:42;-6.10;99.90
47022;DHT22;32779;52.264;6.154;2024-01-11T05:13:08;-6.20;99.90
47022;DHT22;32779;52.264;6.154;2024-01-11T05:15:35;-6.20;99.90
47022;DHT22;32779;52.264;6.154;2024-01-11T05:18:00;-6.30;99.90
47022;DHT22;32779;52.264;6.154;2024-01-11T05:20:26;-6.30;99.90
47022;DHT22;32779;52.264;6.154;2024-01-11T05:22:51;-6.30;99.90
47022;DHT22;32779;52.264;6.154;2024-01-11T05:25:17;-6.40;99.90
47022;DHT22;32779;52.264;6.154;2024-01-11T05:27:43;-6.50;99.90
47022;DHT22;32779;52.264;6.154;2024-01-11T05:30:08;-6.60;99.90
47022;DHT22;32779;52.264;6.154;2024-01-11T05:32:35;-6.60;99.90
47022;DHT22;32779;52.264;6.154;2024-01-11T05:35:00;-6.60;99.90
47022;DHT22;32779;52.264;6.154;2024-01-11T05:37:26;-6.70;99.90
47022;DHT22;32779;52.264;6.154;2024-01-11T05:39:52;-6.70;99.90
47022;DHT22;32779;52.264;6.154;2024-01-11T05:42:19;-6.70;99.90
47022;DHT22;32779;52.264;6.154;2024-01-11T05:44:45;-6.70;99.90
47022;DHT22;32779;52.264;6.154;2024-01-11T05:47:10;-6.70;99.90
47022;DHT22;32779;52.264;6.154;2024-01-11T05:49:36;-6.70;99.90
47022;DHT22;32779;52.264;6.154;2024-01-11T05:52:02;-6.80;99.90
47022;DHT22;32779;52.264;6.154;2024-01-11T05:54:27;-6.80;99.90
47022;DHT22;32779;52.264;6.154;2024-01-11T05:56:53;-6.80;99.90
47022;DHT22;32779;52.264;6.154;2024-01-11T05:59:21;-6.80;99.90
47022;DHT22;32779;52.264;6.154;2024-01-11T06:01:47;-6.70;99.90
47022;DHT22;32779;52.264;6.154;2024-01-11T06:04:13;-6.70;99.90
47022;DHT22;32779;52.264;6.154;2024-01-11T06:06:40;-6.70;99.90
47022;DHT22;32779;52.264;6.154;2024-01-11T06:09:05;-6.70;99.90
47022;DHT22;32779;52.264;6.154;2024-01-11T06:11:32;-6.70;99.90
47022;DHT22;32779;52.264;6.154;2024-01-11T06:13:58;-6.70;99.90
47022;DHT22;32779;52.264;6.154;2024-01-11T06:16:24;-6.60;99.90
47022;DHT22;32779;52.264;6.154;2024-01-11T06:18:50;-6.60;99.90
47022;DHT22;32779;52.264;6.154;2024-01-11T06:21:16;-6.50;99.90
47022;DHT22;32779;52.264;6.154;2024-01-11T06:23:45;-6.50;99.90
47022;DHT22;32779;52.264;6.154;2024-01-11T06:26:11;-6.50;99.90
47022;DHT22;32779;52.264;6.154;2024-01-11T06:28:36;-6.50;99.90
47022;DHT22;32779;52.264;6.154;2024-01-11T06:31:02;-6.40;99.90
47022;DHT22;32779;52.264;6.154;2024-01-11T06:33:28;-6.50;99.90
47022;DHT22;32779;52.264;6.154;2024-01-11T06:35:54;-6.40;99.90
47022;DHT22;32779;52.264;6.154;2024-01-11T06:38:20;-6.40;99.90
47022;DHT22;32779;52.264;6.154;2024-01-11T06:40:45;-6.40;99.90
47022;DHT22;32779;52.264;6.154;2024-01-11T06:43:11;-6.40;99.90
47022;DHT22;32779;52.264;6.154;2024-01-11T06:45:37;-6.40;99.90
47022;DHT22;32779;52.264;6.154;2024-01-11T06:48:02;-6.40;99.90
47022;DHT22;32779;52.264;6.154;2024-01-11T06:50:28;-6.40;99.90
47022;DHT22;32779;52.264;6.154;2024-01-11T06:52:54;-6.40;99.90
47022;DHT22;32779;52.264;6.154;2024-01-11T06:55:20;-6.40;99.90
47022;DHT22;32779;52.264;6.154;2024-01-11T06:57:48;-6.40;99.90
47022;DHT22;32779;52.264;6.154;2024-01-11T07:00:14;-6.50;99.90
47022;DHT22;32779;52.264;6.154;2024-01-11T07:02:39;-6.60;99.90
47022;DHT22;32779;52.264;6.154;2024-01-11T07:05:06;-6.60;99.90
47022;DHT22;32779;52.264;6.154;2024-01-11T07:07:32;-6.60;99.90
47022;DHT22;32779;52.264;6.154;2024-01-11T07:09:58;-6.70;99.90
47022;DHT22;32779;52.264;6.154;2024-01-11T07:12:24;-6.70;99.90
47022;DHT22;32779;52.264;6.154;2024-01-11T07:14:51;-6.70;99.90
47022;DHT22;32779;52.264;6.154;2024-01-11T07:17:17;-6.80;99.90
47022;DHT22;32779;52.264;6.154;2024-01-11T07:19:43;-6.80;99.90
47022;DHT22;32779;52.264;6.154;2024-01-11T07:22:08;-6.70;99.90
47022;DHT22;32779;52.264;6.154;2024-01-11T07:24:34;-6.80;99.90
47022;DHT22;32779;52.264;6.154;2024-01-11T07:27:06;-6.80;99.90
47022;DHT22;32779;52.264;6.154;2024-01-11T07:29:33;-6.80;99.90
47022;DHT22;32779;52.264;6.154;2024-01-11T07:31:59;-6.70;99.90
47022;DHT22;32779;52.264;6.154;2024-01-11T07:34:26;-6.70;99.90
47022;DHT22;32779;52.264;6.154;2024-01-11T07:36:52;-6.80;99.90
47022;DHT22;32779;52.264;6.154;2024-01-11T07:39:18;-6.80;99.90
47022;DHT22;32779;52.264;6.154;2024-01-11T07:41:44;-6.80;99.90
47022;DHT22;32779;52.264;6.154;2024-01-11T07:44:09;-6.80;99.90
47022;DHT22;32779;52.264;6.154;2024-01-11T07:46:35;-6.80;99.90
47022;DHT22;32779;52.264;6.154;2024-01-11T07:49:03;-6.80;99.90
47022;DHT22;32779;52.264;6.154;2024-01-11T07:51:30;-6.80;99.90
47022;DHT22;32779;52.264;6.154;2024-01-11T07:53:56;-6.80;99.90
47022;DHT22;32779;52.264;6.154;2024-01-11T07:56:22;-6.80;99.90
47022;DHT22;32779;52.264;6.154;2024-01-11T07:58:47;-6.80;99.90
47022;DHT22;32779;52.264;6.154;2024-01-11T08:01:14;-6.80;99.90
47022;DHT22;32779;52.264;6.154;2024-01-11T08:03:41;-6.80;99.90
47022;DHT22;32779;52.264;6.154;2024-01-11T08:06:07;-6.80;99.90
47022;DHT22;32779;52.264;6.154;2024-01-11T08:08:33;-6.80;99.90
47022;DHT22;32779;52.264;6.154;2024-01-11T08:10:59;-6.70;99.90
47022;DHT22;32779;52.264;6.154;2024-01-11T08:13:25;-6.70;99.90
47022;DHT22;32779;52.264;6.154;2024-01-11T08:15:51;-6.60;99.90
47022;DHT22;32779;52.264;6.154;2024-01-11T08:18:19;-6.50;99.90
47022;DHT22;32779;52.264;6.154;2024-01-11T08:20:44;-6.40;99.90
47022;DHT22;32779;52.264;6.154;2024-01-11T08:23:10;-6.30;99.90
47022;DHT22;32779;52.264;6.154;2024-01-11T08:25:36;-6.30;99.90
47022;DHT22;32779;52.264;6.154;2024-01-11T08:28:02;-6.20;99.90
47022;DHT22;32779;52.264;6.154;2024-01-11T08:30:28;-6.10;99.90
47022;DHT22;32779;52.264;6.154;2024-01-11T08:32:54;-6.10;99.90
47022;DHT22;32779;52.264;6.154;2024-01-11T08:35:21;-6.00;99.90
47022;DHT22;32779;52.264;6.154;2024-01-11T08:37:46;-6.00;99.90
47022;DHT22;32779;52.264;6.154;2024-01-11T08:40:12;-5.90;99.90
47022;DHT22;32779;52.264;6.154;2024-01-11T08:42:38;-5.90;99.90
47022;DHT22;32779;52.264;6.154;2024-01-11T08:45:05;-5.80;99.90
47022;DHT22;32779;52.264;6.154;2024-01-11T08:47:35;-5.70;99.90
47022;DHT22;32779;52.264;6.154;2024-01-11T08:50:04;-5.70;99.90
47022;DHT22;32779;52.264;6.154;2024-01-11T08:52:32;-5.60;99.90
47022;DHT22;32779;52.264;6.154;2024-01-11T08:54:58;-5.50;99.90
47022;DHT22;32779;52.264;6.154;2024-01-11T08:57:24;-5.40;99.90
47022;DHT22;32779;52.264;6.154;2024-01-11T08:59:49;-5.30;99.90
47022;DHT22;32779;52.264;6.154;2024-01-11T09:02:15;-5.20;99.90
47022;DHT22;32779;52.264;6.154;2024-01-11T09:04:41;-5.10;99.90
47022;DHT22;32779;52.264;6.154;2024-01-11T09:07:06;-5.10;99.90
47022;DHT22;32779;52.264;6.154;2024-01-11T09:09:32;-5.00;99.90
47022;DHT22;32779;52.264;6.154;2024-01-11T09:11:58;-5.00;99.90
47022;DHT22;32779;52.264;6.154;2024-01-11T09:14:23;-4.90;99.90
47022;DHT22;32779;52.264;6.154;2024-01-11T09:16:49;-4.90;99.90
47022;DHT22;32779;52.264;6.154;2024-01-11T09:19:15;-4.80;99.90
47022;DHT22;32779;52.264;6.154;2024-01-11T09:21:41;-4.70;99.90
47022;DHT22;32779;52.264;6.154;2024-01-11T09:24:07;-4.70;99.90
47022;DHT22;32779;52.264;6.154;2024-01-11T09:26:33;-4.60;99.90
47022;DHT22;32779;52.264;6.154;2024-01-11T09:28:58;-4.50;99.90
47022;DHT22;32779;52.264;6.154;2024-01-11T09:31:24;-4.50;99.90
47022;DHT22;32779;52.264;6.154;2024-01-11T09:33:49;-4.40;99.90
47022;DHT22;32779;52.264;6.154;2024-01-11T09:36:15;-4.30;99.90
47022;DHT22;32779;52.264;6.154;2024-01-11T09:38:41;-4.20;99.90
47022;DHT22;32779;52.264;6.154;2024-01-11T09:41:08;-4.10;99.90
47022;DHT22;32779;52.264;6.154;2024-01-11T09:43:35;-4.10;99.90
47022;DHT22;32779;52.264;6.154;2024-01-11T09:46:05;-4.00;99.90
47022;DHT22;32779;52.264;6.154;2024-01-11T09:48:33;-3.90;99.90
47022;DHT22;32779;52.264;6.154;2024-01-11T09:51:01;-3.90;99.90
47022;DHT22;32779;52.264;6.154;2024-01-11T09:53:29;-3.80;99.90
47022;DHT22;32779;52.264;6.154;2024-01-11T09:55:58;-3.70;99.90
47022;DHT22;32779;52.264;6.154;2024-01-11T09:58:24;-3.70;99.90
47022;DHT22;32779;52.264;6.154;2024-01-11T10:00:54;-3.70;99.90
47022;DHT22;32779;52.264;6.154;2024-01-11T10:03:22;-3.60;99.90
47022;DHT22;32779;52.264;6.154;2024-01-11T10:05:49;-3.50;99.90
47022;DHT22;32779;52.264;6.154;2024-01-11T10:08:20;-3.50;99.90
47022;DHT22;32779;52.264;6.154;2024-01-11T10:10:46;-3.50;99.90
47022;DHT22;32779;52.264;6.154;2024-01-11T10:13:12;-3.30;99.90
47022;DHT22;32779;52.264;6.154;2024-01-11T10:15:38;-3.30;99.90
47022;DHT22;32779;52.264;6.154;2024-01-11T10:18:03;-3.30;99.90
47022;DHT22;32779;52.264;6.154;2024-01-11T10:20:29;-3.20;99.90
47022;DHT22;32779;52.264;6.154;2024-01-11T10:22:58;-3.20;99.90
47022;DHT22;32779;52.264;6.154;2024-01-11T10:25:24;-3.10;99.90
47022;DHT22;32779;52.264;6.154;2024-01-11T10:27:51;-3.10;99.90
47022;DHT22;32779;52.264;6.154;2024-01-11T10:30:17;-3.00;99.90
47022;DHT22;32779;52.264;6.154;2024-01-11T10:32:46;-3.00;99.90
47022;DHT22;32779;52.264;6.154;2024-01-11T10:35:13;-3.00;99.90
47022;DHT22;32779;52.264;6.154;2024-01-11T10:37:38;-2.90;99.90
47022;DHT22;32779;52.264;6.154;2024-01-11T10:40:06;-2.90;99.90
47022;DHT22;32779;52.264;6.154;2024-01-11T10:42:45;-2.80;99.90
47022;DHT22;32779;52.264;6.154;2024-01-11T10:45:18;-2.80;99.90
47022;DHT22;32779;52.264;6.154;2024-01-11T10:47:53;-2.70;99.90
47022;DHT22;32779;52.264;6.154;2024-01-11T10:50:19;-2.70;99.90
47022;DHT22;32779;52.264;6.154;2024-01-11T10:53:10;-2.60;99.90
47022;DHT22;32779;52.264;6.154;2024-01-11T10:55:38;-2.60;99.90
47022;DHT22;32779;52.264;6.154;2024-01-11T10:58:05;-2.50;99.90
47022;DHT22;32779;52.264;6.154;2024-01-11T11:00:34;-2.50;99.90
47022;DHT22;32779;52.264;6.154;2024-01-11T11:03:00;-2.50;99.90
47022;DHT22;32779;52.264;6.154;2024-01-11T11:05:29;-2.40;99.90
47022;DHT22;32779;52.264;6.154;2024-01-11T11:07:56;-2.40;99.90
47022;DHT22;32779;52.264;6.154;2024-01-11T11:10:22;-2.40;99.90
47022;DHT22;32779;52.264;6.154;2024-01-11T11:12:48;-2.40;99.90
47022;DHT22;32779;52.264;6.154;2024-01-11T11:15:15;-2.30;99.90
47022;DHT22;32779;52.264;6.154;2024-01-11T11:17:41;-2.30;99.90
47022;DHT22;32779;52.264;6.154;2024-01-11T11:20:08;-2.20;99.90
47022;DHT22;32779;52.264;6.154;2024-01-11T11:22:39;-2.20;99.90
47022;DHT22;32779;52.264;6.154;2024-01-11T11:25:24;-2.20;99.90
47022;DHT22;32779;52.264;6.154;2024-01-11T11:27:50;-2.20;99.90
47022;DHT22;32779;52.264;6.154;2024-01-11T11:30:18;-2.20;99.90
47022;DHT22;32779;52.264;6.154;2024-01-11T11:32:45;-2.10;99.90
47022;DHT22;32779;52.264;6.154;2024-01-11T11:35:11;-2.00;99.90
47022;DHT22;32779;52.264;6.154;2024-01-11T11:37:37;-2.00;99.90
47022;DHT22;32779;52.264;6.154;2024-01-11T11:40:05;-1.90;99.90
47022;DHT22;32779;52.264;6.154;2024-01-11T11:42:33;-1.90;99.90
47022;DHT22;32779;52.264;6.154;2024-01-11T11:44:59;-1.90;99.90
47022;DHT22;32779;52.264;6.154;2024-01-11T11:47:33;-1.80;99.90
47022;DHT22;32779;52.264;6.154;2024-01-11T11:50:06;-1.70;99.90
47022;DHT22;32779;52.264;6.154;2024-01-11T11:52:37;-1.70;99.90
47022;DHT22;32779;52.264;6.154;2024-01-11T11:55:04;-1.70;99.90
47022;DHT22;32779;52.264;6.154;2024-01-11T11:57:30;-1.60;99.90
47022;DHT22;32779;52.264;6.154;2024-01-11T11:59:57;-1.50;99.90
47022;DHT22;32779;52.264;6.154;2024-01-11T12:02:27;-1.50;99.90
47022;DHT22;32779;52.264;6.154;2024-01-11T12:04:54;-1.40;99.90
47022;DHT22;32779;52.264;6.154;2024-01-11T12:07:23;-1.40;99.90
47022;DHT22;32779;52.264;6.154;2024-01-11T12:09:49;-1.40;99.90
47022;DHT22;32779;52.264;6.154;2024-01-11T12:12:16;-1.30;99.90
47022;DHT22;32779;52.264;6.154;2024-01-11T12:14:43;-1.30;99.90
47022;DHT22;32779;52.264;6.154;2024-01-11T12:17:09;-1.20;99.90
47022;DHT22;32779;52.264;6.154;2024-01-11T12:19:35;-1.20;99.90
47022;DHT22;32779;52.264;6.154;2024-01-11T12:22:00;-1.10;99.90
47022;DHT22;32779;52.264;6.154;2024-01-11T12:24:26;-1.10;99.90
47022;DHT22;32779;52.264;6.154;2024-01-11T12:26:52;-1.00;99.90
47022;DHT22;32779;52.264;6.154;2024-01-11T12:29:19;-1.00;99.90
47022;DHT22;32779;52.264;6.154;2024-01-11T12:31:45;-1.00;99.90
47022;DHT22;32779;52.264;6.154;2024-01-11T12:34:14;-0.90;99.90
47022;DHT22;32779;52.264;6.154;2024-01-11T12:36:40;-0.90;99.90
47022;DHT22;32779;52.264;6.154;2024-01-11T12:39:06;-0.80;99.90
47022;DHT22;32779;52.264;6.154;2024-01-11T12:41:32;-0.80;99.90
47022;DHT22;32779;52.264;6.154;2024-01-11T12:43:58;-0.70;99.90
47022;DHT22;32779;52.264;6.154;2024-01-11T12:46:24;-0.70;99.90
47022;DHT22;32779;52.264;6.154;2024-01-11T12:48:50;-0.60;99.90
47022;DHT22;32779;52.264;6.154;2024-01-11T12:51:19;-0.60;99.90
47022;DHT22;32779;52.264;6.154;2024-01-11T12:53:46;-0.60;99.90
47022;DHT22;32779;52.264;6.154;2024-01-11T12:56:15;-0.50;99.90
47022;DHT22;32779;52.264;6.154;2024-01-11T12:58:41;-0.50;99.90
47022;DHT22;32779;52.264;6.154;2024-01-11T13:01:08;-0.40;99.90
47022;DHT22;32779;52.264;6.154;2024-01-11T13:03:37;-0.40;99.90
47022;DHT22;32779;52.264;6.154;2024-01-11T13:06:03;-0.30;99.90
47022;DHT22;32779;52.264;6.154;2024-01-11T13:08:34;-0.30;99.90
47022;DHT22;32779;52.264;6.154;2024-01-11T13:11:06;-0.30;99.90
47022;DHT22;32779;52.264;6.154;2024-01-11T13:13:35;-0.20;99.90
47022;DHT22;32779;52.264;6.154;2024-01-11T13:16:02;-0.20;99.90
47022;DHT22;32779;52.264;6.154;2024-01-11T13:18:39;-0.20;99.90
47022;DHT22;32779;52.264;6.154;2024-01-11T13:21:05;-0.20;99.90
47022;DHT22;32779;52.264;6.154;2024-01-11T13:23:32;-0.20;99.90
47022;DHT22;32779;52.264;6.154;2024-01-11T13:25:57;-0.20;99.90
47022;DHT22;32779;52.264;6.154;2024-01-11T13:28:23;-0.20;99.90
47022;DHT22;32779;52.264;6.154;2024-01-11T13:30:49;-0.20;99.90
47022;DHT22;32779;52.264;6.154;2024-01-11T13:33:14;-0.20;99.90
47022;DHT22;32779;52.264;6.154;2024-01-11T13:35:42;-0.20;99.90
47022;DHT22;32779;52.264;6.154;2024-01-11T13:38:08;-0.20;99.90
47022;DHT22;32779;52.264;6.154;2024-01-11T13:40:34;-0.10;99.90
47022;DHT22;32779;52.264;6.154;2024-01-11T13:43:00;-0.10;99.90
47022;DHT22;32779;52.264;6.154;2024-01-11T13:45:29;-0.10;99.90
47022;DHT22;32779;52.264;6.154;2024-01-11T13:47:59;-0.10;99.90
47022;DHT22;32779;52.264;6.154;2024-01-11T13:50:25;-0.10;99.90
47022;DHT22;32779;52.264;6.154;2024-01-11T13:52:51;-0.10;99.90
47022;DHT22;32779;52.264;6.154;2024-01-11T13:55:20;-0.10;99.90
47022;DHT22;32779;52.264;6.154;2024-01-11T13:57:47;-0.10;99.90
47022;DHT22;32779;52.264;6.154;2024-01-11T14:00:13;-0.20;99.90
47022;DHT22;32779;52.264;6.154;2024-01-11T14:02:39;-0.10;99.90
47022;DHT22;32779;52.264;6.154;2024-01-11T14:05:10;-0.10;99.90
47022;DHT22;32779;52.264;6.154;2024-01-11T14:07:39;-0.10;99.90
47022;DHT22;32779;52.264;6.154;2024-01-11T14:10:06;0.00;99.90
47022;DHT22;32779;52.264;6.154;2024-01-11T14:12:32;0.00;99.90
47022;DHT22;32779;52.264;6.154;2024-01-11T14:14:58;0.00;99.90
47022;DHT22;32779;52.264;6.154;2024-01-11T14:17:25;0.10;99.90
47022;DHT22;32779;52.264;6.154;2024-01-11T14:19:51;0.10;99.90
47022;DHT22;32779;52.264;6.154;2024-01-11T14:22:17;0.10;99.90
47022;DHT22;32779;52.264;6.154;2024-01-11T14:24:44;0.10;99.90
47022;DHT22;32779;52.264;6.154;2024-01-11T14:27:13;0.10;99.90
47022;DHT22;32779;52.264;6.154;2024-01-11T14:29:42;0.10;99.90
47022;DHT22;32779;52.264;6.154;2024-01-11T14:32:11;0.10;99.90
47022;DHT22;32779;52.264;6.154;2024-01-11T14:34:37;0.10;99.90
47022;DHT22;32779;52.264;6.154;2024-01-11T14:37:07;0.10;99.90
47022;DHT22;32779;52.264;6.154;2024-01-11T14:39:33;0.10;99.90
47022;DHT22;32779;52.264;6.154;2024-01-11T14:41:58;0.10;99.90
47022;DHT22;32779;52.264;6.154;2024-01-11T14:44:27;0.10;99.90
47022;DHT22;32779;52.264;6.154;2024-01-11T14:46:52;0.10;99.90
47022;DHT22;32779;52.264;6.154;2024-01-11T14:49:18;0.10;99.90
47022;DHT22;32779;52.264;6.154;2024-01-11T14:51:43;0.10;99.90
47022;DHT22;32779;52.264;6.154;2024-01-11T14:54:09;0.10;99.90
47022;DHT22;32779;52.264;6.154;2024-01-11T14:56:35;0.10;99.90
47022;DHT22;32779;52.264;6.154;2024-01-11T14:59:01;0.10;99.90
47022;DHT22;32779;52.264;6.154;2024-01-11T15:01:27;0.00;99.90
47022;DHT22;32779;52.264;6.154;2024-01-11T15:03:52;0.00;99.90
47022;DHT22;32779;52.264;6.154;2024-01-11T15:06:18;0.00;99.90
47022;DHT22;32779;52.264;6.154;2024-01-11T15:08:44;-0.10;99.90
47022;DHT22;32779;52.264;6.154;2024-01-11T15:11:09;0.00;99.90
47022;DHT22;32779;52.264;6.154;2024-01-11T15:13:35;0.00;99.90
47022;DHT22;32779;52.264;6.154;2024-01-11T15:16:01;0.00;99.90
47022;DHT22;32779;52.264;6.154;2024-01-11T15:18:27;0.00;99.90
47022;DHT22;32779;52.264;6.154;2024-01-11T15:20:52;0.00;99.90
47022;DHT22;32779;52.264;6.154;2024-01-11T15:23:18;0.00;99.90
47022;DHT22;32779;52.264;6.154;2024-01-11T15:25:44;0.00;99.90
47022;DHT22;32779;52.264;6.154;2024-01-11T15:28:13;0.00;99.90